Allisonia, Virginia
Current Conditions -  °F | °C
As of 3:35 AM on Sunday 26 Oct 2014 (Local Time) from KPSK Reporting Station
Broken Clouds Broken Clouds  
Wind Chill: 63°   Ceiling: 3400
Heat Index: 63°   Visibility: 10mi
Dew Point: 54°   Wind: 20mph
Humidity: 72%   Direction: 290°WNW
Pressure: 29.88"   Gusts: 28mph
Location:  36.9752°N, 80.6434°W
Report Text: KPSK 260735Z AUTO 29017G24KT 10SM BKN034 BKN040 17/12 A2988 RMK AO2
Loading
Personal Weather Stations






























Interactive Weather Map New forecast layout! Learn more

10-Day Weather Forecast

Advertisements
Track Severe Weather on mobile